Time;durP1;ratioP1;P1;durP2;ratioP2;P2;SDS_P1;SDS_P2;PMS_P1;PMS_P2;Temp;Humidity;BMP_temperature;BMP_pressure;BME280_temperature;BME280_humidity;BME280_pressure;Samples;Min_cycle;Max_cycle;Signal;HPM_P1;HPM_P2
2023/11/02 00:01:40;;;;;;;8.50;2.72;;;;;;;9.41;100.00;98936.28;6081624;19;20006;-70
2023/11/02 00:03:51;;;;;;;9.60;2.95;;;;;;;9.48;100.00;98928.81;6079810;19;20006;-70
2023/11/02 00:06:25;;;;;;;7.22;2.38;;;;;;;9.50;100.00;98917.28;6081767;19;20033;-70
2023/11/02 00:08:35;;;;;;;4.22;2.85;;;;;;;9.54;100.00;98920.56;5979399;19;2004712;-70
2023/11/02 00:10:40;;;;;;;7.18;2.30;;;;;;;9.55;100.00;98906.50;6080336;19;20016;-70
2023/11/02 00:12:46;;;;;;;3.83;2.10;;;;;;;9.55;100.00;98894.22;6081330;19;20045;-71
2023/11/02 00:14:54;;;;;;;8.52;3.00;;;;;;;9.54;100.00;98895.19;6082050;19;20010;-70
2023/11/02 00:17:00;;;;;;;10.00;2.80;;;;;;;9.56;100.00;98885.44;6079891;19;20010;-70
2023/11/02 00:19:08;;;;;;;4.40;2.90;;;;;;;9.54;100.00;98894.34;6082789;19;21850;-71
2023/11/02 00:21:28;;;;;;;12.73;2.70;;;;;;;9.65;100.00;98876.94;6079959;19;20007;-71
2023/11/02 00:23:39;;;;;;;6.25;2.25;;;;;;;9.66;100.00;98873.38;6081617;19;20458;-71
2023/11/02 00:25:50;;;;;;;7.07;2.63;;;;;;;9.70;100.00;98857.44;6079324;19;19998;-70
2023/11/02 00:27:55;;;;;;;4.75;2.63;;;;;;;9.73;100.00;98851.97;6075713;19;20002;-70
2023/11/02 00:30:00;;;;;;;10.75;2.72;;;;;;;9.70;100.00;98831.22;6079984;19;20003;-70
2023/11/02 00:32:08;;;;;;;7.38;2.70;;;;;;;9.73;100.00;98816.09;6080634;19;20482;-69
2023/11/02 00:34:19;;;;;;;3.50;2.08;;;;;;;9.72;100.00;98800.47;6077862;19;20462;-70
2023/11/02 00:36:26;;;;;;;4.13;2.63;;;;;;;9.70;100.00;98797.13;6078421;19;20377;-69
2023/11/02 00:38:32;;;;;;;6.35;2.80;;;;;;;9.71;100.00;98793.53;6081074;19;20007;-70
2023/11/02 00:40:34;;;;;;;5.57;2.30;;;;;;;9.71;100.00;98789.13;6080850;19;20519;-71
2023/11/02 00:42:40;;;;;;;4.80;2.10;;;;;;;9.79;100.00;98786.78;6073995;19;20002;-70
2023/11/02 00:44:47;;;;;;;7.20;2.42;;;;;;;9.78;100.00;98786.91;6081427;19;20351;-72
2023/11/02 00:46:49;;;;;;;4.18;2.28;;;;;;;9.82;100.00;98775.25;6081111;19;20010;-71
2023/11/02 00:48:54;;;;;;;;;;;;;;;9.84;100.00;98778.59;6080089;19;20013;-70
2023/11/02 00:51:24;;;;;;;6.80;2.65;;;;;;;9.91;100.00;98774.63;6078039;19;20275;-70
2023/11/02 00:53:30;;;;;;;4.45;2.17;;;;;;;9.85;100.00;98773.28;6078626;19;20003;-70
2023/11/02 00:55:36;;;;;;;9.40;2.38;;;;;;;9.87;100.00;98758.25;6081457;19;20014;-71
2023/11/02 00:57:43;;;;;;;8.55;2.88;;;;;;;9.94;100.00;98745.53;6080345;19;20017;-70
2023/11/02 00:59:48;;;;;;;14.02;3.03;;;;;;;9.91;100.00;98735.25;6080040;19;20082;-69
2023/11/02 01:01:53;;;;;;;4.22;2.42;;;;;;;9.85;100.00;98719.97;6078514;19;20006;-71
2023/11/02 01:04:05;;;;;;;7.32;2.58;;;;;;;9.91;100.00;98716.06;6074619;19;20010;-70
2023/11/02 01:06:15;;;;;;;9.90;3.22;;;;;;;9.95;100.00;98715.72;6080380;19;20007;-71
2023/11/02 01:08:31;;;;;;;10.32;2.30;;;;;;;9.94;100.00;98706.19;6078021;19;20010;-72
2023/11/02 01:10:36;;;;;;;5.70;2.08;;;;;;;9.96;100.00;98712.16;6077848;19;20006;-69
2023/11/02 01:12:41;;;;;;;8.25;2.58;;;;;;;9.96;100.00;98693.78;6074851;19;20034;-70
2023/11/02 01:14:52;;;;;;;7.22;2.70;;;;;;;10.02;100.00;98698.59;6076388;19;20042;-70
2023/11/02 01:16:57;;;;;;;6.22;2.33;;;;;;;9.99;100.00;98680.44;6077729;19;20022;-70
2023/11/02 01:19:02;;;;;;;4.97;2.58;;;;;;;10.00;100.00;98676.84;6081643;19;20040;-72
2023/11/02 01:21:08;;;;;;;7.18;2.33;;;;;;;10.05;100.00;98674.75;6078588;19;20439;-71
2023/11/02 01:23:23;;;;;;;7.53;2.35;;;;;;;10.06;100.00;98646.75;6078696;19;20503;-71
2023/11/02 01:25:31;;;;;;;5.53;2.90;;;;;;;10.04;100.00;98633.72;6077719;19;20533;-72
2023/11/02 01:27:33;;;;;;;7.65;1.92;;;;;;;10.11;100.00;98627.06;6079090;19;20414;-69
2023/11/02 01:29:39;;;;;;;6.35;2.67;;;;;;;10.10;100.00;98624.56;6076900;19;20343;-71
2023/11/02 01:31:41;;;;;;;4.70;2.22;;;;;;;10.08;100.00;98616.81;6079046;19;20403;-70
2023/11/02 01:34:03;;;;;;;8.98;2.38;;;;;;;10.10;100.00;98598.31;6074364;19;20462;-71
2023/11/02 01:36:07;;;;;;;9.20;2.90;;;;;;;10.14;100.00;98588.41;6077843;19;20034;-71
2023/11/02 01:38:15;;;;;;;7.25;2.42;;;;;;;10.18;100.00;98563.63;6078784;19;20006;-69
2023/11/02 01:40:35;;;;;;;5.40;2.28;;;;;;;10.17;100.00;98564.59;6081313;19;20003;-71
2023/11/02 01:42:45;;;;;;;6.30;2.28;;;;;;;10.17;100.00;98535.72;6080399;19;20463;-71
2023/11/02 01:44:55;;;;;;;6.03;2.83;;;;;;;10.11;100.00;98503.72;6075730;19;20162;-70
2023/11/02 01:47:10;;;;;;;8.23;2.28;;;;;;;10.16;100.00;98503.38;6077690;19;20010;-70
2023/11/02 01:49:23;;;;;;;4.38;1.92;;;;;;;10.18;100.00;98498.00;6079577;19;20056;-70
2023/11/02 01:51:33;;;;;;;5.20;2.03;;;;;;;10.13;100.00;98479.97;6080582;19;20007;-71
2023/11/02 01:53:50;;;;;;;6.18;2.38;;;;;;;10.08;100.00;98472.50;6074286;19;20014;-71
2023/11/02 01:56:08;;;;;;;5.40;2.15;;;;;;;10.16;100.00;98456.13;6070348;19;20010;-71
2023/11/02 01:58:26;;;;;;;4.95;2.00;;;;;;;10.13;100.00;98442.41;6077900;19;20042;-71
2023/11/02 02:00:44;;;;;;;2.75;1.75;;;;;;;10.10;100.00;98419.88;5975428;19;2005103;-70
2023/11/02 02:02:58;;;;;;;6.13;2.38;;;;;;;10.13;100.00;98405.69;6077144;19;20478;-70
2023/11/02 02:05:16;;;;;;;9.70;2.83;;;;;;;10.11;100.00;98409.25;6077717;19;20391;-71
2023/11/02 02:07:37;;;;;;;11.70;3.55;;;;;;;10.06;100.00;98400.91;6078058;19;20094;-70
2023/11/02 02:09:56;;;;;;;6.35;1.98;;;;;;;10.10;100.00;98399.69;6076903;19;20074;-70
2023/11/02 02:12:13;;;;;;;5.15;2.13;;;;;;;10.11;100.00;98387.44;6077051;19;20049;-71
2023/11/02 02:14:27;;;;;;;5.47;2.40;;;;;;;10.15;100.00;98378.34;6073323;19;20390;-70
2023/11/02 02:16:38;;;;;;;4.10;1.60;;;;;;;10.08;100.00;98383.28;6076130;19;20010;-69
2023/11/02 02:18:48;;;;;;;12.45;2.50;;;;;;;10.08;100.00;98380.66;5994371;19;2005204;-69
2023/11/02 02:20:56;;;;;;;7.03;2.70;;;;;;;10.10;100.00;98370.84;6077992;19;20340;-70
2023/11/02 02:23:10;;;;;;;5.13;2.10;;;;;;;10.11;100.00;98359.41;6074353;19;20460;-71
2023/11/02 02:25:26;;;;;;;10.10;2.20;;;;;;;10.12;100.00;98365.47;6076221;19;20014;-70
2023/11/02 02:28:00;;;;;;;10.35;2.85;;;;;;;10.15;100.00;98338.16;6071774;19;20415;-69
2023/11/02 02:30:36;;;;;;;9.50;2.30;;;;;;;10.14;100.00;98329.47;6075291;19;20045;-70
2023/11/02 02:32:59;;;;;;;9.02;2.30;;;;;;;10.15;100.00;98331.13;6077619;19;20633;-71
2023/11/02 02:35:15;;;;;;;3.95;2.05;;;;;;;10.20;100.00;98299.28;5974022;19;2004928;-71
2023/11/02 02:37:29;;;;;;;6.80;2.42;;;;;;;10.22;100.00;98281.63;6081642;19;20009;-71
2023/11/02 02:39:40;;;;;;;6.18;1.98;;;;;;;10.19;100.00;98263.47;6082793;19;20473;-69
2023/11/02 02:41:48;;;;;;;6.90;2.05;;;;;;;10.20;100.00;98267.78;6081206;19;20038;-71
2023/11/02 02:43:55;;;;;;;6.50;2.38;;;;;;;10.23;100.00;98270.16;6081885;19;20027;-70
2023/11/02 02:46:06;;;;;;;10.30;2.10;;;;;;;10.19;100.00;98281.84;6079376;19;20018;-69
2023/11/02 02:48:15;;;;;;;9.30;2.50;;;;;;;10.19;100.00;98274.81;6081345;19;20507;-69
2023/11/02 02:50:25;;;;;;;6.38;1.80;;;;;;;10.19;100.00;98255.59;6082162;19;20006;-70
2023/11/02 02:52:32;;;;;;;12.80;2.88;;;;;;;10.21;100.00;98245.81;6081740;19;20019;-71
2023/11/02 02:54:42;;;;;;;5.05;1.77;;;;;;;10.23;100.00;98244.72;6081007;19;20019;-70
2023/11/02 02:56:48;;;;;;;5.07;2.33;;;;;;;10.28;100.00;98236.53;6078844;19;20011;-71
2023/11/02 02:59:01;;;;;;;3.70;2.22;;;;;;;10.28;100.00;98223.41;6082822;19;20006;-69
2023/11/02 03:01:08;;;;;;;4.88;2.05;;;;;;;10.36;100.00;98197.38;5975922;19;2005142;-69
2023/11/02 03:03:17;;;;;;;3.88;1.85;;;;;;;10.31;100.00;98189.84;6081012;19;20014;-70
2023/11/02 03:05:25;;;;;;;10.25;2.08;;;;;;;10.35;100.00;98176.47;6080619;19;20011;-71
2023/11/02 03:07:34;;;;;;;10.02;2.22;;;;;;;10.33;100.00;98163.50;6080017;19;20024;-70
2023/11/02 03:09:42;;;;;;;5.25;1.95;;;;;;;10.37;100.00;98148.31;6081789;19;20031;-70
2023/11/02 03:11:46;;;;;;;6.65;2.15;;;;;;;10.36;100.00;98126.50;6076874;19;20371;-71
2023/11/02 03:13:53;;;;;;;6.90;2.67;;;;;;;10.39;100.00;98133.28;6080749;19;20042;-71
2023/11/02 03:16:04;;;;;;;8.30;2.50;;;;;;;10.41;100.00;98119.06;6082740;19;20089;-72
2023/11/02 03:18:12;;;;;;;8.48;1.98;;;;;;;10.41;100.00;98105.09;6080075;19;20027;-71
2023/11/02 03:20:19;;;;;;;10.85;2.60;;;;;;;10.41;100.00;98108.56;6083472;19;20014;-70
2023/11/02 03:22:30;;;;;;;5.78;1.77;;;;;;;10.41;100.00;98091.97;6082428;19;20038;-70
2023/11/02 03:24:49;;;;;;;10.98;2.47;;;;;;;10.42;100.00;98099.72;6084848;19;20019;-71
2023/11/02 03:27:02;;;;;;;3.10;1.80;;;;;;;10.46;100.00;98102.94;6079855;19;20010;-71
2023/11/02 03:29:16;;;;;;;8.45;2.10;;;;;;;10.43;100.00;98090.06;6079559;19;20390;-69
2023/11/02 03:31:30;;;;;;;8.63;2.33;;;;;;;10.45;100.00;98088.13;6078130;19;21306;-70
2023/11/02 03:33:42;;;;;;;4.25;1.63;;;;;;;10.46;100.00;98056.50;6080449;19;20447;-70
2023/11/02 03:36:01;;;;;;;4.35;1.67;;;;;;;10.51;100.00;98019.38;6082788;19;20011;-72
2023/11/02 03:38:18;;;;;;;5.28;1.60;;;;;;;10.49;100.00;97990.59;6083550;19;20027;-70
2023/11/02 03:40:32;;;;;;;6.35;1.77;;;;;;;10.50;100.00;97987.00;6078410;19;20091;-69
2023/11/02 03:42:47;;;;;;;5.03;1.85;;;;;;;10.51;100.00;97990.47;6079828;19;20366;-70
2023/11/02 03:45:07;;;;;;;7.03;2.10;;;;;;;10.60;100.00;97988.84;6077778;19;20011;-69
2023/11/02 03:59:04;;;;;;;3.60;1.70;;;;;;;10.71;100.00;97928.34;6079412;19;20038;-71
2023/11/02 04:01:20;;;;;;;6.25;2.35;;;;;;;10.68;100.00;97899.72;6081827;19;20006;-70
2023/11/02 04:03:30;;;;;;;5.85;1.75;;;;;;;10.70;100.00;97900.44;6078460;19;20007;-71
2023/11/02 04:05:41;;;;;;;3.25;1.45;;;;;;;10.72;100.00;97874.88;6080859;19;20022;-69
2023/11/02 04:08:18;;;;;;;4.85;2.15;;;;;;;10.72;100.00;97840.72;6081720;19;20083;-69
2023/11/02 04:10:24;;;;;;;3.15;1.58;;;;;;;10.71;100.00;97825.91;6080216;19;20010;-69
2023/11/02 04:12:43;;;;;;;4.55;3.13;;;;;;;10.73;100.00;97821.34;6080556;19;20007;-69
2023/11/02 04:14:54;;;;;;;5.10;1.40;;;;;;;10.73;100.00;97826.59;6078989;19;20014;-71
2023/11/02 04:17:01;;;;;;;6.38;1.83;;;;;;;10.76;100.00;97827.16;6082819;19;20046;-71
2023/11/02 04:19:06;;;;;;;4.95;1.55;;;;;;;10.81;100.00;97816.25;6082007;19;20465;-69
2023/11/02 04:21:13;;;;;;;7.13;1.95;;;;;;;10.81;100.00;97805.75;6081516;19;20006;-70
2023/11/02 04:23:22;;;;;;;3.55;1.30;;;;;;;10.84;100.00;97808.09;6081922;19;20377;-70
2023/11/02 04:25:27;;;;;;;4.93;1.65;;;;;;;10.91;100.00;97798.69;6080831;19;20370;-69
2023/11/02 04:27:32;;;;;;;7.47;1.90;;;;;;;10.94;100.00;97808.09;6078912;19;20661;-69
2023/11/02 04:29:38;;;;;;;6.53;1.67;;;;;;;10.85;100.00;97794.00;6077837;19;20348;-70
2023/11/02 04:31:45;;;;;;;5.30;1.25;;;;;;;10.91;100.00;97774.22;6080754;19;20010;-70
2023/11/02 04:33:51;;;;;;;6.55;1.88;;;;;;;10.94;100.00;97808.09;6079191;19;20019;-70
2023/11/02 04:35:58;;;;;;;8.65;1.70;;;;;;;10.94;100.00;97769.50;6079927;19;20015;-70
2023/11/02 04:38:07;;;;;;;5.13;1.52;;;;;;;10.89;100.00;97758.59;6080160;19;20255;-70
2023/11/02 04:40:13;;;;;;;2.60;1.20;;;;;;;10.96;100.00;97758.88;6080399;19;20479;-70
2023/11/02 04:42:21;;;;;;;5.82;1.80;;;;;;;10.98;100.00;97754.31;6079206;19;20492;-71
2023/11/02 04:44:26;;;;;;;2.65;2.03;;;;;;;10.97;100.00;97731.63;6079265;19;20007;-70
2023/11/02 04:46:32;;;;;;;1.63;1.30;;;;;;;10.95;100.00;97729.16;6081362;19;20397;-70
2023/11/02 04:48:40;;;;;;;7.18;1.77;;;;;;;10.92;100.00;97736.47;6080728;19;20011;-70
2023/11/02 04:50:47;;;;;;;3.22;1.40;;;;;;;10.91;100.00;97735.63;6080076;19;20006;-70
2023/11/02 04:52:50;;;;;;;4.07;1.33;;;;;;;10.88;100.00;97717.53;6076273;19;20015;-71
2023/11/02 04:54:54;;;;;;;;;;;;;;;10.93;100.00;97712.69;6080632;19;20003;-69
2023/11/02 04:56:59;;;;;;;3.28;1.60;;;;;;;10.93;100.00;97715.31;6074925;19;19915;-68
2023/11/02 04:59:05;;;;;;;2.63;1.20;;;;;;;10.98;100.00;97697.34;6076817;19;20062;-69
2023/11/02 05:01:10;;;;;;;1.52;1.15;;;;;;;11.03;100.00;97691.63;6080001;19;20007;-69
2023/11/02 05:03:13;;;;;;;4.32;1.65;;;;;;;11.04;100.00;97692.47;6078589;19;20329;-69
2023/11/02 05:05:23;;;;;;;6.28;1.77;;;;;;;11.05;100.00;97678.34;6080457;19;20013;-69
2023/11/02 05:07:29;;;;;;;3.90;1.85;;;;;;;11.10;100.00;97670.88;6079900;19;20010;-70
2023/11/02 05:09:34;;;;;;;3.20;1.33;;;;;;;11.02;100.00;97655.81;6079004;19;20010;-69
2023/11/02 05:11:36;;;;;;;6.63;2.28;;;;;;;10.97;100.00;97672.00;6077236;19;20002;-70
2023/11/02 05:13:41;;;;;;;7.80;1.63;;;;;;;10.94;100.00;97630.25;6073526;19;21189;-70
2023/11/02 05:15:46;;;;;;;1.20;1.00;;;;;;;10.90;100.00;97646.44;6077158;19;20006;-70
2023/11/02 05:18:00;;;;;;;3.25;1.90;;;;;;;10.98;100.00;97609.81;6078588;19;20103;-70
2023/11/02 05:20:09;;;;;;;4.55;1.90;;;;;;;11.04;100.00;97611.03;6078007;19;20016;-70
2023/11/02 05:22:19;;;;;;;7.75;1.55;;;;;;;10.95;100.00;97626.69;6078590;19;20011;-70
2023/11/02 05:24:24;;;;;;;3.58;1.45;;;;;;;10.89;100.00;97613.28;6078340;19;20022;-70
2023/11/02 05:26:31;;;;;;;3.40;1.30;;;;;;;10.88;100.00;97601.94;6074326;19;20162;-68
2023/11/02 05:28:36;;;;;;;5.28;1.63;;;;;;;10.93;100.00;97601.53;6077764;19;20006;-70
2023/11/02 05:30:41;;;;;;;2.65;1.15;;;;;;;10.89;100.00;97587.84;6078650;19;20554;-70
2023/11/02 05:32:46;;;;;;;6.43;1.83;;;;;;;10.87;100.00;97594.19;6078777;19;20010;-70
2023/11/02 05:34:51;;;;;;;3.85;1.58;;;;;;;10.83;100.00;97562.16;6078253;19;20011;-70
2023/11/02 05:36:56;;;;;;;2.17;1.30;;;;;;;10.77;100.00;97573.25;6078728;19;19999;-69
2023/11/02 05:39:05;;;;;;;4.00;1.77;;;;;;;10.70;100.00;97557.22;6077029;19;20015;-69
2023/11/02 05:41:11;;;;;;;1.90;1.20;;;;;;;10.61;100.00;97559.88;6078387;19;20074;-69
2023/11/02 05:43:16;;;;;;;2.85;1.08;;;;;;;10.58;100.00;97554.91;6078101;19;20107;-70
2023/11/02 05:45:21;;;;;;;2.65;1.52;;;;;;;10.54;100.00;97546.50;6076640;19;20127;-70
2023/11/02 05:47:26;;;;;;;4.07;1.70;;;;;;;10.37;100.00;97534.91;6079701;19;20387;-71
2023/11/02 05:49:31;;;;;;;6.85;1.58;;;;;;;10.33;100.00;97530.94;6078037;19;20493;-71
2023/11/02 05:51:37;;;;;;;2.00;1.35;;;;;;;10.29;100.00;97519.06;6075927;19;20038;-71
2023/11/02 05:53:42;;;;;;;6.05;1.40;;;;;;;10.15;100.00;97509.81;6076116;19;20472;-72
2023/11/02 05:55:50;;;;;;;3.17;1.58;;;;;;;10.13;100.00;97516.97;6080208;19;20405;-72
2023/11/02 05:57:55;;;;;;;9.13;1.63;;;;;;;10.16;100.00;97498.34;6076966;19;20377;-71
2023/11/02 06:00:01;;;;;;;5.35;2.50;;;;;;;10.16;100.00;97489.63;6077609;19;20086;-71
2023/11/02 06:02:07;;;;;;;1.25;1.15;;;;;;;10.14;100.00;97471.44;6079913;19;20003;-71
2023/11/02 06:04:12;;;;;;;2.60;1.83;;;;;;;10.20;100.00;97470.84;6078229;19;20083;-71
2023/11/02 06:06:20;;;;;;;2.78;1.65;;;;;;;10.24;100.00;97453.00;6077979;19;20055;-72
2023/11/02 06:08:26;;;;;;;1.60;1.48;;;;;;;10.25;100.00;97429.28;6079558;19;20006;-71
2023/11/02 06:10:31;;;;;;;2.15;1.30;;;;;;;10.21;100.00;97445.44;6076617;19;20014;-71
2023/11/02 06:12:40;;;;;;;7.93;1.58;;;;;;;10.20;100.00;97443.78;6076897;19;19999;-72
2023/11/02 06:15:19;;;;;;;3.05;1.25;;;;;;;10.23;100.00;97417.25;6072207;19;20006;-72
2023/11/02 06:18:09;;;;;;;3.53;1.30;;;;;;;10.28;100.00;97431.63;5971224;19;2004861;-72
2023/11/02 06:20:56;;;;;;;6.47;1.60;;;;;;;10.35;100.00;97438.91;6077099;19;20069;-72
2023/11/02 06:23:13;;;;;;;3.80;1.48;;;;;;;10.39;100.00;97419.31;6076693;19;20282;-71
2023/11/02 06:25:21;;;;;;;4.65;1.30;;;;;;;10.39;100.00;97421.94;6078127;19;20006;-70
2023/11/02 06:27:26;;;;;;;8.48;1.80;;;;;;;10.36;100.00;97407.28;6076166;19;20002;-72
2023/11/02 06:29:34;;;;;;;2.75;1.67;;;;;;;10.38;100.00;97407.97;6077300;19;19999;-71
2023/11/02 06:31:39;;;;;;;1.90;1.15;;;;;;;10.39;100.00;97383.38;6073515;19;20013;-71
2023/11/02 06:33:44;;;;;;;2.55;1.58;;;;;;;10.36;100.00;97391.53;6072826;19;20462;-71
2023/11/02 06:35:52;;;;;;;2.05;1.50;;;;;;;10.37;100.00;97363.50;6070488;19;20014;-71
2023/11/02 06:37:58;;;;;;;1.40;1.20;;;;;;;10.40;100.00;97360.56;6071840;19;20018;-71
2023/11/02 06:40:03;;;;;;;7.30;1.80;;;;;;;10.31;100.00;97363.09;6014639;19;20347;-72
2023/11/02 06:42:09;;;;;;;3.80;2.03;;;;;;;10.37;100.00;97371.38;6076163;19;20075;-72
2023/11/02 06:44:14;;;;;;;4.03;1.52;;;;;;;10.38;100.00;97366.00;6077611;19;20040;-71
2023/11/02 06:46:22;;;;;;;2.00;1.30;;;;;;;10.37;100.00;97372.19;6076663;19;20022;-71
2023/11/02 06:48:28;;;;;;;5.80;1.73;;;;;;;10.38;100.00;97347.63;6074557;19;20474;-71
2023/11/02 06:50:32;;;;;;;2.38;1.25;;;;;;;10.39;100.00;97337.94;6076711;19;20003;-71
2023/11/02 06:52:37;;;;;;;4.10;1.40;;;;;;;10.46;100.00;97339.84;6075920;19;20348;-70
2023/11/02 06:54:44;;;;;;;1.63;1.23;;;;;;;10.51;100.00;97340.22;6076275;19;20007;-71
2023/11/02 06:56:50;;;;;;;3.03;2.13;;;;;;;10.48;100.00;97332.63;6077786;19;20007;-72
2023/11/02 06:58:53;;;;;;;2.38;1.35;;;;;;;10.53;100.00;97340.06;6079805;19;20002;-71
2023/11/02 07:01:01;;;;;;;5.28;1.60;;;;;;;10.60;100.00;97335.03;6073991;19;20007;-71
2023/11/02 07:03:09;;;;;;;3.20;1.30;;;;;;;10.64;100.00;97318.84;6076868;19;20007;-72
2023/11/02 07:05:17;;;;;;;2.63;1.30;;;;;;;10.62;100.00;97317.34;6076473;19;20031;-72
2023/11/02 07:07:22;;;;;;;4.30;1.58;;;;;;;10.65;100.00;97314.44;6076962;19;20094;-71
2023/11/02 07:09:28;;;;;;;7.40;1.77;;;;;;;10.65;100.00;97309.16;6079528;19;20035;-71
2023/11/02 07:11:36;;;;;;;5.15;1.20;;;;;;;10.69;100.00;97313.13;6077381;19;20011;-72
2023/11/02 07:13:41;;;;;;;1.92;1.30;;;;;;;10.70;100.00;97313.00;6078842;19;20070;-71
2023/11/02 07:15:46;;;;;;;3.97;1.58;;;;;;;10.71;100.00;97301.50;6080599;19;20011;-72
2023/11/02 07:17:51;;;;;;;2.17;1.30;;;;;;;10.73;100.00;97298.75;6081322;19;20010;-71
2023/11/02 07:19:59;;;;;;;2.78;1.65;;;;;;;10.73;100.00;97286.44;6076088;19;20002;-72
2023/11/02 07:24:44;;;;;;;4.53;2.35;;;;;;;10.77;100.00;97285.16;6082380;19;20018;-71
2023/11/02 07:26:49;;;;;;;6.28;1.70;;;;;;;10.76;100.00;97278.25;6080540;19;20432;-71
2023/11/02 07:28:53;;;;;;;2.97;1.60;;;;;;;10.78;100.00;97278.13;6078935;19;20045;-72
2023/11/02 07:30:58;;;;;;;4.05;1.60;;;;;;;10.80;100.00;97263.03;6078326;19;20006;-72
2023/11/02 07:33:04;;;;;;;6.38;1.88;;;;;;;10.75;100.00;97252.97;6080194;19;20463;-71
2023/11/02 07:35:47;;;;;;;2.58;1.45;;;;;;;10.72;100.00;97257.72;6081339;19;20006;-71
2023/11/02 07:40:20;;;;;;;4.53;2.53;;;;;;;10.62;100.00;97243.84;5976082;19;2004954;-71
2023/11/02 07:42:22;;;;;;;9.27;1.58;;;;;;;10.60;100.00;97235.28;6076705;19;19999;-71
2023/11/02 07:44:28;;;;;;;8.02;2.58;;;;;;;10.63;100.00;97235.78;6076653;19;20463;-70
2023/11/02 07:46:33;;;;;;;8.93;2.75;;;;;;;10.66;100.00;97242.53;6081155;19;20494;-70
2023/11/02 07:48:40;;;;;;;1.75;1.48;;;;;;;10.62;100.00;97218.41;6079546;19;20102;-71
2023/11/02 07:50:49;;;;;;;6.05;2.22;;;;;;;10.70;100.00;97212.41;6075457;19;20081;-71
2023/11/02 07:52:54;;;;;;;6.00;2.60;;;;;;;10.69;100.00;97211.56;6077810;19;20006;-72
2023/11/02 07:54:59;;;;;;;5.80;1.73;;;;;;;10.73;100.00;97210.28;6077726;19;20042;-71
2023/11/02 07:57:08;;;;;;;3.90;1.52;;;;;;;10.84;100.00;97226.78;6078985;19;20007;-71
2023/11/02 07:59:13;;;;;;;2.95;1.77;;;;;;;10.86;100.00;97199.38;6068935;19;20545;-70
2023/11/02 08:01:18;;;;;;;5.82;1.98;;;;;;;10.92;100.00;97208.44;6074697;19;20011;-71
2023/11/02 08:03:24;;;;;;;5.13;1.73;;;;;;;10.99;100.00;97210.31;6077646;19;20018;-71
2023/11/02 08:05:29;;;;;;;4.75;1.55;;;;;;;11.04;100.00;97196.72;6072316;19;20713;-70
2023/11/02 08:07:37;;;;;;;5.53;1.70;;;;;;;11.03;100.00;97191.59;6071188;19;19999;-71
2023/11/02 08:09:43;;;;;;;3.20;1.88;;;;;;;11.03;100.00;97195.06;6073588;19;21013;-70
2023/11/02 08:11:50;;;;;;;6.75;1.67;;;;;;;11.11;100.00;97181.13;6070582;19;20021;-71
2023/11/02 08:13:56;;;;;;;4.47;1.90;;;;;;;11.11;100.00;97175.88;6077494;19;20010;-71
2023/11/02 08:16:01;;;;;;;5.43;1.98;;;;;;;11.20;100.00;97183.66;6067806;19;20002;-71
2023/11/02 08:18:07;;;;;;;5.32;1.60;;;;;;;11.21;100.00;97172.16;6075125;19;19999;-71
2023/11/02 08:20:11;;;;;;;4.35;3.25;;;;;;;11.26;100.00;97150.69;6067087;19;20007;-70
2023/11/02 08:22:16;;;;;;;13.32;2.45;;;;;;;11.45;100.00;97151.41;6075135;19;20108;-70
2023/11/02 08:24:24;;;;;;;7.53;1.52;;;;;;;11.56;100.00;97151.16;6079273;19;20055;-70
2023/11/02 08:26:29;;;;;;;4.75;1.70;;;;;;;11.55;100.00;97154.75;6076419;19;20011;-71
2023/11/02 08:28:34;;;;;;;5.82;1.70;;;;;;;11.57;100.00;97148.34;6076835;19;20048;-70
2023/11/02 08:30:40;;;;;;;7.57;1.88;;;;;;;11.62;100.00;97138.19;6075992;19;20003;-71
2023/11/02 08:32:45;;;;;;;5.30;1.75;;;;;;;11.70;100.00;97139.19;6070496;19;20013;-71
2023/11/02 08:34:50;;;;;;;7.60;2.22;;;;;;;11.79;100.00;97111.91;6071786;19;20487;-70
2023/11/02 08:36:55;;;;;;;5.05;1.63;;;;;;;11.80;100.00;97119.66;6072531;19;20006;-72
2023/11/02 08:39:01;;;;;;;8.05;1.40;;;;;;;11.83;100.00;97131.66;6073674;19;20006;-70
2023/11/02 08:41:08;;;;;;;7.32;1.95;;;;;;;11.95;100.00;97126.94;6071972;19;20098;-71
2023/11/02 08:43:13;;;;;;;10.70;2.22;;;;;;;11.87;100.00;97098.81;6072473;19;20007;-72
2023/11/02 08:45:19;;;;;;;5.80;2.20;;;;;;;11.95;100.00;97095.38;6072323;19;20606;-71
2023/11/02 08:47:25;;;;;;;9.25;1.70;;;;;;;11.91;100.00;97086.16;6072984;19;20574;-71
2023/11/02 08:49:29;;;;;;;6.82;1.92;;;;;;;12.00;100.00;97086.00;6071906;19;19998;-71
2023/11/02 08:51:38;;;;;;;5.93;1.80;;;;;;;11.99;100.00;97102.78;6073139;19;20034;-71
2023/11/02 08:53:40;;;;;;;11.38;2.35;;;;;;;11.95;100.00;97116.41;6072565;19;20006;-71
2023/11/02 08:55:45;;;;;;;10.40;2.10;;;;;;;11.97;100.00;97088.97;6070203;19;20017;-70
2023/11/02 08:57:53;;;;;;;4.00;1.52;;;;;;;11.81;100.00;97084.47;6073468;19;20669;-70
2023/11/02 09:00:05;;;;;;;12.82;1.92;;;;;;;11.75;100.00;97077.22;6071954;19;20007;-70
2023/11/02 09:02:10;;;;;;;8.95;2.08;;;;;;;11.67;100.00;97066.69;6070607;19;20383;-70
2023/11/02 09:04:15;;;;;;;29.92;4.07;;;;;;;11.67;100.00;97056.19;6069887;19;20381;-71
2023/11/02 09:06:21;;;;;;;5.05;2.05;;;;;;;11.57;100.00;97082.63;6073788;19;20245;-71
2023/11/02 09:08:29;;;;;;;6.25;1.65;;;;;;;11.43;100.00;97078.00;6073820;19;22649;-70
2023/11/02 09:10:34;;;;;;;15.88;2.70;;;;;;;11.35;100.00;97078.78;6070029;19;21719;-69
2023/11/02 09:12:40;;;;;;;10.23;3.20;;;;;;;11.29;100.00;97071.50;6073730;19;20006;-71
2023/11/02 09:14:50;;;;;;;8.48;2.13;;;;;;;11.27;100.00;97059.50;6073452;19;20588;-70
2023/11/02 09:16:57;;;;;;;6.50;2.08;;;;;;;11.21;100.00;97063.59;6072589;19;20002;-71
2023/11/02 09:19:03;;;;;;;10.00;2.33;;;;;;;11.23;100.00;97081.84;6071624;19;20013;-72
2023/11/02 09:21:09;;;;;;;18.73;2.47;;;;;;;11.26;100.00;97074.47;6075643;19;20010;-70
2023/11/02 09:23:15;;;;;;;6.25;2.05;;;;;;;11.20;100.00;97069.84;6073960;19;20023;-70
2023/11/02 09:25:21;;;;;;;10.13;2.20;;;;;;;11.16;100.00;97066.72;6077546;19;20002;-71
2023/11/02 09:27:29;;;;;;;4.82;1.63;;;;;;;11.26;100.00;97068.38;6075440;19;19999;-72
2023/11/02 09:29:34;;;;;;;7.03;1.80;;;;;;;11.14;100.00;97058.19;6075220;19;20006;-71
2023/11/02 09:31:43;;;;;;;6.30;1.80;;;;;;;11.03;100.00;97062.88;6074041;19;20046;-69
2023/11/02 09:34:05;;;;;;;5.85;1.95;;;;;;;10.98;100.00;97055.50;6071676;19;20017;-71
2023/11/02 09:36:09;;;;;;;4.32;1.65;;;;;;;11.03;100.00;97060.25;6073515;19;20313;-71
2023/11/02 09:38:16;;;;;;;4.85;1.73;;;;;;;11.00;100.00;97069.25;6072478;19;20326;-70
2023/11/02 09:40:21;;;;;;;5.80;1.67;;;;;;;10.91;100.00;97073.66;6070199;19;20003;-70
2023/11/02 09:42:28;;;;;;;10.85;2.20;;;;;;;10.88;100.00;97066.09;6078712;19;20006;-73
2023/11/02 09:44:34;;;;;;;14.02;2.08;;;;;;;10.85;100.00;97074.31;6075115;19;20010;-70
2023/11/02 09:46:42;;;;;;;2.67;1.48;;;;;;;10.83;100.00;97064.94;6075610;19;20013;-71
2023/11/02 09:48:48;;;;;;;10.80;1.75;;;;;;;10.83;100.00;97036.03;6076557;19;20011;-71
2023/11/02 09:50:54;;;;;;;10.50;2.50;;;;;;;10.79;100.00;97048.63;6076986;19;20026;-71
2023/11/02 09:53:00;;;;;;;14.55;2.30;;;;;;;10.83;100.00;97042.09;6072039;19;20580;-73
2023/11/02 09:55:09;;;;;;;8.13;1.60;;;;;;;10.86;100.00;97065.44;6078781;19;20454;-72
2023/11/02 09:57:15;;;;;;;6.90;1.90;;;;;;;10.84;100.00;97080.50;6076012;19;20022;-72
2023/11/02 09:59:18;;;;;;;6.47;2.00;;;;;;;10.82;100.00;97060.63;6073043;19;20649;-71
2023/11/02 10:01:24;;;;;;;15.82;2.47;;;;;;;10.90;100.00;97047.53;6071633;19;20011;-70
2023/11/02 10:03:32;;;;;;;6.88;1.77;;;;;;;10.92;100.00;97061.34;6074525;19;20496;-72
2023/11/02 10:05:37;;;;;;;11.68;2.60;;;;;;;10.94;100.00;97051.50;6073136;19;20090;-71
2023/11/02 10:07:42;;;;;;;6.90;2.25;;;;;;;11.02;100.00;97043.66;6074791;19;20522;-72
2023/11/02 10:09:50;;;;;;;9.45;1.88;;;;;;;11.02;100.00;97030.53;6076118;19;20038;-73
2023/11/02 10:11:56;;;;;;;6.38;1.85;;;;;;;11.11;100.00;97018.22;6072368;19;20002;-72
2023/11/02 10:14:04;;;;;;;6.57;2.08;;;;;;;11.21;100.00;97018.94;6072516;19;20014;-73
2023/11/02 10:16:10;;;;;;;5.47;2.45;;;;;;;11.29;100.00;97023.38;6074122;19;20337;-71